sensor_id;sensor_type;location;lat;lon;timestamp;P1;durP1;ratioP1;P2;durP2;ratioP2
66800;SDS011;53703;50.326;19.122;2023-08-07T20:07:35;4.70;;;1.90;;
66800;SDS011;53703;50.326;19.122;2023-08-07T20:10:09;3.00;;;1.90;;
66800;SDS011;53703;50.326;19.122;2023-08-07T20:12:43;3.30;;;1.90;;
66800;SDS011;53703;50.326;19.122;2023-08-07T20:15:17;3.80;;;2.00;;
66800;SDS011;53703;50.326;19.122;2023-08-07T20:17:51;2.40;;;1.80;;
66800;SDS011;53703;50.326;19.122;2023-08-07T20:20:24;4.60;;;2.50;;
66800;SDS011;53703;50.326;19.122;2023-08-07T20:22:58;3.40;;;2.00;;
66800;SDS011;53703;50.326;19.122;2023-08-07T20:25:31;7.00;;;1.90;;
66800;SDS011;53703;50.326;19.122;2023-08-07T20:28:05;3.70;;;1.80;;
66800;SDS011;53703;50.326;19.122;2023-08-07T20:30:39;3.20;;;1.80;;
66800;SDS011;53703;50.326;19.122;2023-08-07T20:33:12;2.70;;;1.60;;
66800;SDS011;53703;50.326;19.122;2023-08-07T20:35:46;3.40;;;1.80;;
66800;SDS011;53703;50.326;19.122;2023-08-07T20:38:19;2.60;;;1.80;;
66800;SDS011;53703;50.326;19.122;2023-08-07T20:40:52;2.70;;;1.70;;
66800;SDS011;53703;50.326;19.122;2023-08-07T20:43:25;2.00;;;1.50;;
66800;SDS011;53703;50.326;19.122;2023-08-07T20:45:59;3.00;;;1.80;;
66800;SDS011;53703;50.326;19.122;2023-08-07T20:48:32;2.50;;;1.60;;
66800;SDS011;53703;50.326;19.122;2023-08-07T20:51:08;2.10;;;1.60;;
66800;SDS011;53703;50.326;19.122;2023-08-07T20:53:41;1.90;;;1.30;;
66800;SDS011;53703;50.326;19.122;2023-08-07T20:56:17;4.50;;;1.60;;
66800;SDS011;53703;50.326;19.122;2023-08-07T20:58:50;2.20;;;1.50;;
66800;SDS011;53703;50.326;19.122;2023-08-07T21:01:23;2.40;;;1.40;;
66800;SDS011;53703;50.326;19.122;2023-08-07T21:03:57;3.10;;;1.40;;
66800;SDS011;53703;50.326;19.122;2023-08-07T21:06:40;2.60;;;1.30;;
66800;SDS011;53703;50.326;19.122;2023-08-07T21:09:13;3.80;;;1.70;;
66800;SDS011;53703;50.326;19.122;2023-08-07T21:11:47;2.30;;;1.20;;
66800;SDS011;53703;50.326;19.122;2023-08-07T21:14:20;2.20;;;1.30;;
66800;SDS011;53703;50.326;19.122;2023-08-07T21:16:53;3.70;;;1.20;;
66800;SDS011;53703;50.326;19.122;2023-08-07T21:19:27;3.60;;;1.40;;
66800;SDS011;53703;50.326;19.122;2023-08-07T21:22:00;1.80;;;1.30;;
66800;SDS011;53703;50.326;19.122;2023-08-07T21:24:34;2.20;;;1.20;;
66800;SDS011;53703;50.326;19.122;2023-08-07T21:27:08;4.80;;;1.60;;
66800;SDS011;53703;50.326;19.122;2023-08-07T21:29:42;3.70;;;1.50;;
66800;SDS011;53703;50.326;19.122;2023-08-07T21:32:15;2.30;;;1.40;;
66800;SDS011;53703;50.326;19.122;2023-08-07T21:34:49;2.40;;;1.50;;
66800;SDS011;53703;50.326;19.122;2023-08-07T21:37:23;2.70;;;1.30;;
66800;SDS011;53703;50.326;19.122;2023-08-07T21:40:02;2.70;;;1.30;;
66800;SDS011;53703;50.326;19.122;2023-08-07T21:42:37;2.20;;;1.30;;
66800;SDS011;53703;50.326;19.122;2023-08-07T21:45:12;2.40;;;1.10;;
66800;SDS011;53703;50.326;19.122;2023-08-07T21:47:45;3.90;;;1.20;;
66800;SDS011;53703;50.326;19.122;2023-08-07T21:50:18;1.70;;;0.90;;
66800;SDS011;53703;50.326;19.122;2023-08-07T21:52:52;2.20;;;1.10;;
66800;SDS011;53703;50.326;19.122;2023-08-07T21:55:25;4.00;;;1.20;;
66800;SDS011;53703;50.326;19.122;2023-08-07T21:57:58;1.80;;;1.20;;
66800;SDS011;53703;50.326;19.122;2023-08-07T22:00:32;2.70;;;1.40;;
66800;SDS011;53703;50.326;19.122;2023-08-07T22:03:05;2.10;;;1.10;;
66800;SDS011;53703;50.326;19.122;2023-08-07T22:05:39;3.20;;;1.10;;
66800;SDS011;53703;50.326;19.122;2023-08-07T22:08:12;2.00;;;1.00;;
66800;SDS011;53703;50.326;19.122;2023-08-07T22:10:46;5.50;;;1.20;;
66800;SDS011;53703;50.326;19.122;2023-08-07T22:13:19;2.20;;;1.10;;
66800;SDS011;53703;50.326;19.122;2023-08-07T22:15:52;1.70;;;1.10;;
66800;SDS011;53703;50.326;19.122;2023-08-07T22:18:25;2.10;;;1.10;;
66800;SDS011;53703;50.326;19.122;2023-08-07T22:20:59;1.80;;;1.00;;
66800;SDS011;53703;50.326;19.122;2023-08-07T22:23:32;1.70;;;1.10;;
66800;SDS011;53703;50.326;19.122;2023-08-07T22:26:06;2.60;;;1.00;;
66800;SDS011;53703;50.326;19.122;2023-08-07T22:28:39;2.70;;;1.00;;
66800;SDS011;53703;50.326;19.122;2023-08-07T22:31:12;1.40;;;1.00;;
66800;SDS011;53703;50.326;19.122;2023-08-07T22:33:46;1.90;;;1.10;;
66800;SDS011;53703;50.326;19.122;2023-08-07T22:36:19;1.30;;;0.80;;
66800;SDS011;53703;50.326;19.122;2023-08-07T22:38:53;1.30;;;0.90;;
66800;SDS011;53703;50.326;19.122;2023-08-07T22:41:26;1.40;;;1.00;;
66800;SDS011;53703;50.326;19.122;2023-08-07T22:44:02;2.40;;;1.00;;
66800;SDS011;53703;50.326;19.122;2023-08-07T22:46:36;1.20;;;0.90;;
66800;SDS011;53703;50.326;19.122;2023-08-07T22:49:09;1.80;;;1.20;;
66800;SDS011;53703;50.326;19.122;2023-08-07T22:51:42;2.70;;;1.00;;
66800;SDS011;53703;50.326;19.122;2023-08-07T22:54:15;1.40;;;0.80;;
66800;SDS011;53703;50.326;19.122;2023-08-07T22:56:49;2.60;;;1.10;;
66800;SDS011;53703;50.326;19.122;2023-08-07T22:59:22;1.40;;;1.00;;
66800;SDS011;53703;50.326;19.122;2023-08-07T23:01:55;4.90;;;1.20;;
66800;SDS011;53703;50.326;19.122;2023-08-07T23:04:29;1.30;;;1.00;;
66800;SDS011;53703;50.326;19.122;2023-08-07T23:07:02;1.70;;;0.90;;
66800;SDS011;53703;50.326;19.122;2023-08-07T23:09:36;1.40;;;1.00;;
66800;SDS011;53703;50.326;19.122;2023-08-07T23:12:10;2.00;;;1.10;;
66800;SDS011;53703;50.326;19.122;2023-08-07T23:14:45;1.30;;;0.90;;
66800;SDS011;53703;50.326;19.122;2023-08-07T23:17:19;1.20;;;0.90;;
66800;SDS011;53703;50.326;19.122;2023-08-07T23:19:52;2.50;;;1.00;;
66800;SDS011;53703;50.326;19.122;2023-08-07T23:22:25;2.60;;;0.90;;
66800;SDS011;53703;50.326;19.122;2023-08-07T23:24:58;1.00;;;0.80;;
66800;SDS011;53703;50.326;19.122;2023-08-07T23:27:34;1.40;;;1.10;;
66800;SDS011;53703;50.326;19.122;2023-08-07T23:30:08;1.20;;;0.90;;
66800;SDS011;53703;50.326;19.122;2023-08-07T23:32:43;1.70;;;1.00;;
66800;SDS011;53703;50.326;19.122;2023-08-07T23:35:16;1.80;;;1.00;;
66800;SDS011;53703;50.326;19.122;2023-08-07T23:37:49;1.70;;;0.80;;
66800;SDS011;53703;50.326;19.122;2023-08-07T23:40:24;1.20;;;0.90;;
66800;SDS011;53703;50.326;19.122;2023-08-07T23:42:57;1.70;;;1.00;;
66800;SDS011;53703;50.326;19.122;2023-08-07T23:45:30;1.70;;;1.10;;
66800;SDS011;53703;50.326;19.122;2023-08-07T23:48:05;4.00;;;1.10;;
66800;SDS011;53703;50.326;19.122;2023-08-07T23:50:39;1.60;;;0.90;;
66800;SDS011;53703;50.326;19.122;2023-08-07T23:53:12;2.70;;;0.90;;
66800;SDS011;53703;50.326;19.122;2023-08-07T23:55:45;1.70;;;0.80;;
66800;SDS011;53703;50.326;19.122;2023-08-07T23:58:19;1.20;;;0.90;;
